Time;durP1;ratioP1;P1;durP2;ratioP2;P2;SDS_P1;SDS_P2;PMS_P1;PMS_P2;Temp;Humidity;BMP_temperature;BMP_pressure;BME280_temperature;BME280_humidity;BME280_pressure;Samples;Min_cycle;Max_cycle;Signal;HPM_P1;HPM_P2
2024/03/17 06:00:42;;;;;;;12.00;7.78;;;8.80;96.20;;;;;;4725777;23;20038;-75
2024/03/17 06:02:46;;;;;;;13.75;8.55;;;8.80;96.30;;;;;;4101741;29;20090;-76
2024/03/17 06:04:48;;;;;;;12.77;7.75;;;8.70;96.70;;;;;;4101939;29;20051;-77
2024/03/17 06:06:50;;;;;;;12.60;7.40;;;8.70;96.80;;;;;;4111670;28;20055;-76
2024/03/17 06:08:52;;;;;;;11.27;7.18;;;8.70;96.70;;;;;;4117498;28;20380;-76
2024/03/17 06:10:53;;;;;;;9.20;6.57;;;8.70;96.70;;;;;;4100176;28;20078;-75
2024/03/17 06:12:56;;;;;;;14.63;8.32;;;8.70;96.70;;;;;;4100927;29;20058;-76
2024/03/17 06:14:57;;;;;;;14.68;9.23;;;8.80;96.80;;;;;;4101414;29;20070;-77
2024/03/17 06:17:01;;;;;;;14.32;9.20;;;8.80;96.70;;;;;;4091508;29;20060;-76
2024/03/17 06:19:03;;;;;;;15.40;9.30;;;8.80;96.80;;;;;;4085664;29;20056;-75
2024/03/17 06:21:06;;;;;;;14.13;8.90;;;8.80;96.60;;;;;;4085608;29;20108;-75
2024/03/17 06:23:07;;;;;;;14.45;8.80;;;8.80;96.70;;;;;;4085635;29;20051;-75
2024/03/17 06:25:09;;;;;;;12.95;8.00;;;8.80;96.70;;;;;;4087920;29;20127;-76
2024/03/17 06:27:11;;;;;;;10.93;7.85;;;8.90;96.80;;;;;;4096429;28;20448;-75
2024/03/17 06:29:13;;;;;;;13.18;7.90;;;8.90;96.60;;;;;;4101061;28;20530;-75
2024/03/17 06:31:15;;;;;;;13.20;8.20;;;9.00;96.40;;;;;;4101182;28;20079;-76
2024/03/17 06:33:19;;;;;;;11.85;8.10;;;9.00;96.30;;;;;;4100946;28;20051;-76
2024/03/17 06:35:25;;;;;;;12.48;7.60;;;9.00;96.30;;;;;;4101254;29;20043;-75
2024/03/17 06:37:27;;;;;;;12.85;7.57;;;9.10;96.30;;;;;;4101379;28;20058;-76
2024/03/17 06:39:29;;;;;;;10.98;6.93;;;9.20;96.30;;;;;;4101107;28;20138;-76
2024/03/17 06:41:31;;;;;;;11.93;7.53;;;9.20;96.30;;;;;;4098778;28;20059;-75
2024/03/17 06:43:34;;;;;;;12.85;7.70;;;9.20;96.20;;;;;;4085211;29;20052;-76
2024/03/17 06:45:35;;;;;;;12.35;7.50;;;9.10;96.20;;;;;;4097450;29;20043;-74
2024/03/17 06:47:37;;;;;;;12.52;7.25;;;9.10;96.20;;;;;;4100986;29;20058;-74
2024/03/17 06:49:40;;;;;;;11.88;7.57;;;9.10;96.30;;;;;;4101049;29;20484;-74
2024/03/17 06:51:44;;;;;;;11.65;7.32;;;9.10;96.40;;;;;;4101240;29;20051;-75
2024/03/17 06:53:45;;;;;;;12.23;7.05;;;9.20;96.40;;;;;;4100785;28;20552;-74
2024/03/17 06:55:54;;;;;;;14.13;7.68;;;9.20;96.20;;;;;;4106905;28;20063;-74
2024/03/17 06:57:56;;;;;;;11.23;7.30;;;9.30;96.00;;;;;;4093519;28;20086;-76
2024/03/17 06:59:58;;;;;;;12.32;7.25;;;9.20;96.20;;;;;;4100539;29;20114;-75
2024/03/17 07:02:01;;;;;;;13.65;7.80;;;9.30;96.20;;;;;;4099613;28;20056;-75
2024/03/17 07:04:03;;;;;;;10.75;6.50;;;9.30;96.00;;;;;;4100094;28;20044;-75
2024/03/17 07:06:07;;;;;;;15.70;7.90;;;9.40;96.00;;;;;;4100761;29;20055;-74
2024/03/17 07:08:09;;;;;;;13.80;6.50;;;9.30;96.10;;;;;;4100765;29;20055;-76
2024/03/17 07:10:12;;;;;;;14.65;8.43;;;9.30;96.10;;;;;;4100321;29;20489;-74
2024/03/17 07:12:14;;;;;;;12.50;8.10;;;9.00;96.60;;;;;;4100450;28;20468;-77
2024/03/17 07:14:16;;;;;;;14.25;8.75;;;8.90;97.30;;;;;;4103735;28;20050;-75
2024/03/17 07:16:19;;;;;;;14.35;8.45;;;9.00;97.10;;;;;;4094027;28;20492;-75
2024/03/17 07:18:20;;;;;;;12.57;8.40;;;9.10;97.00;;;;;;4101499;28;20094;-75
2024/03/17 07:20:22;;;;;;;13.73;8.10;;;9.20;96.70;;;;;;4099779;28;20481;-75
2024/03/17 07:22:26;;;;;;;13.52;7.95;;;9.30;96.40;;;;;;4098706;28;20094;-76
2024/03/17 07:24:29;;;;;;;11.75;7.20;;;9.20;96.50;;;;;;4100602;29;20480;-76
2024/03/17 07:26:32;;;;;;;11.40;7.05;;;9.30;96.40;;;;;;4100650;29;20504;-75
2024/03/17 07:28:34;;;;;;;11.35;6.50;;;9.40;96.10;;;;;;4100222;29;20416;-75
2024/03/17 07:30:35;;;;;;;9.90;6.75;;;9.50;95.90;;;;;;4099229;28;20087;-74
2024/03/17 07:32:37;;;;;;;12.18;6.63;;;9.50;95.80;;;;;;4100105;28;20051;-75
2024/03/17 07:34:38;;;;;;;11.52;7.32;;;9.60;95.70;;;;;;4099782;28;20051;-75
2024/03/17 07:36:40;;;;;;;10.40;6.05;;;9.60;95.80;;;;;;4100012;29;20453;-75
2024/03/17 07:38:43;;;;;;;12.00;6.75;;;9.60;95.80;;;;;;4099863;28;20078;-74
2024/03/17 07:40:45;;;;;;;13.60;6.57;;;9.70;95.90;;;;;;4097013;28;20095;-74
2024/03/17 07:42:46;;;;;;;11.07;6.57;;;9.70;95.70;;;;;;4100774;28;20051;-74
2024/03/17 07:44:48;;;;;;;10.48;6.43;;;9.70;95.50;;;;;;4099272;28;20040;-74
2024/03/17 07:46:50;;;;;;;13.43;6.97;;;9.80;95.50;;;;;;4099296;28;20043;-75
2024/03/17 07:48:52;;;;;;;12.07;6.65;;;9.80;95.50;;;;;;4099287;28;20055;-75
2024/03/17 07:50:57;;;;;;;10.48;6.93;;;9.90;95.20;;;;;;4100355;28;20449;-74
2024/03/17 07:52:59;;;;;;;10.95;6.85;;;10.00;95.20;;;;;;4100050;28;20483;-75
2024/03/17 07:55:02;;;;;;;10.68;6.63;;;10.00;95.10;;;;;;4099847;28;20082;-75
2024/03/17 07:57:04;;;;;;;9.73;6.95;;;10.10;95.20;;;;;;4099477;28;20047;-74
2024/03/17 07:59:11;;;;;;;12.25;6.95;;;10.20;95.20;;;;;;4099541;28;20477;-74
2024/03/17 08:01:16;;;;;;;9.88;6.68;;;10.30;95.20;;;;;;4098691;29;20087;-74
2024/03/17 08:03:17;;;;;;;11.63;7.07;;;10.20;95.00;;;;;;4100155;29;20055;-75
2024/03/17 08:05:18;;;;;;;12.32;7.28;;;10.20;94.90;;;;;;4099757;28;20055;-75
2024/03/17 08:07:20;;;;;;;10.63;7.57;;;10.20;94.90;;;;;;4100025;29;20047;-75
2024/03/17 08:09:22;;;;;;;10.82;6.35;;;10.20;94.70;;;;;;4097704;29;20461;-74
2024/03/17 08:11:25;;;;;;;12.95;7.25;;;10.30;94.80;;;;;;4087549;29;20107;-74
2024/03/17 08:13:30;;;;;;;12.10;6.78;;;10.30;94.60;;;;;;4087027;29;20052;-74
2024/03/17 08:15:30;;;;;;;11.30;6.63;;;10.30;94.70;;;;;;4095608;29;20047;-75
2024/03/17 08:17:32;;;;;;;9.80;6.15;;;10.40;94.70;;;;;;4094128;29;20449;-77
2024/03/17 08:19:34;;;;;;;10.80;6.50;;;10.40;94.50;;;;;;4087422;29;20048;-76
2024/03/17 08:21:36;;;;;;;8.88;5.63;;;10.40;94.20;;;;;;4087057;29;20052;-76
2024/03/17 08:23:41;;;;;;;9.30;6.05;;;10.50;93.80;;;;;;4086993;29;20477;-76
2024/03/17 08:25:43;;;;;;;10.35;6.43;;;10.40;93.90;;;;;;4094746;29;20050;-76
2024/03/17 08:27:46;;;;;;;258.25;78.63;;;10.40;93.90;;;;;;4087352;29;20052;-76
2024/03/17 08:29:48;;;;;;;12.02;5.95;;;10.50;93.80;;;;;;4094135;29;20052;-76
2024/03/17 08:31:50;;;;;;;9.20;5.97;;;10.50;94.10;;;;;;4094232;29;20051;-77
2024/03/17 08:33:51;;;;;;;11.20;6.40;;;10.60;94.20;;;;;;4087701;29;20110;-77
2024/03/17 08:35:54;;;;;;;10.68;6.60;;;10.70;93.80;;;;;;4093506;29;20047;-77
2024/03/17 08:37:56;;;;;;;10.88;6.63;;;10.70;93.70;;;;;;4094769;29;20500;-76
2024/03/17 08:39:58;;;;;;;10.70;6.72;;;10.80;93.30;;;;;;4090976;29;20058;-75
2024/03/17 08:42:00;;;;;;;10.07;6.53;;;10.90;93.50;;;;;;4092106;29;20118;-75
2024/03/17 08:44:04;;;;;;;10.55;6.30;;;10.90;93.60;;;;;;4098261;29;20465;-76
2024/03/17 08:46:07;;;;;;;10.00;6.55;;;11.00;93.50;;;;;;4091924;29;20083;-77
2024/03/17 08:48:10;;;;;;;10.13;6.65;;;11.00;93.30;;;;;;4094976;29;20214;-76
2024/03/17 08:50:12;;;;;;;11.20;6.22;;;11.10;93.20;;;;;;4095117;29;20114;-77
2024/03/17 08:52:14;;;;;;;9.15;6.03;;;11.10;93.20;;;;;;4086817;29;20060;-76
2024/03/17 08:54:16;;;;;;;10.10;6.40;;;11.20;92.90;;;;;;4096409;29;20128;-76
2024/03/17 08:56:20;;;;;;;10.05;5.82;;;11.20;92.80;;;;;;4098780;29;20158;-75
2024/03/17 08:58:21;;;;;;;10.07;6.47;;;11.20;92.80;;;;;;4090031;29;20131;-75
2024/03/17 09:00:25;;;;;;;9.32;5.68;;;11.30;93.00;;;;;;4095123;29;20070;-75
2024/03/17 09:02:27;;;;;;;9.93;6.03;;;11.30;92.80;;;;;;4096157;29;20134;-76
2024/03/17 09:04:29;;;;;;;9.40;5.75;;;11.30;92.80;;;;;;4086549;29;20101;-76
2024/03/17 09:06:31;;;;;;;8.85;5.75;;;11.40;92.70;;;;;;4093708;29;20122;-75
2024/03/17 09:08:33;;;;;;;7.80;5.18;;;11.50;92.80;;;;;;4086649;29;20070;-75
2024/03/17 09:10:40;;;;;;;10.82;6.00;;;11.60;92.70;;;;;;4086343;29;20087;-76
2024/03/17 09:12:42;;;;;;;8.10;5.50;;;11.60;92.30;;;;;;4086240;29;20090;-75
2024/03/17 09:14:48;;;;;;;12.82;6.40;;;11.60;92.20;;;;;;4098013;29;20051;-75
2024/03/17 09:16:50;;;;;;;9.27;5.70;;;11.70;92.40;;;;;;4093145;29;20107;-74
2024/03/17 09:18:52;;;;;;;9.18;6.20;;;11.70;92.20;;;;;;4086300;29;20073;-75
2024/03/17 09:20:58;;;;;;;10.20;6.13;;;11.80;91.90;;;;;;4092494;29;20452;-77
2024/03/17 09:23:00;;;;;;;9.57;5.93;;;11.70;91.60;;;;;;4095335;29;20200;-77
2024/03/17 09:25:02;;;;;;;8.88;5.80;;;11.80;91.70;;;;;;4094125;29;20047;-75
2024/03/17 09:27:05;;;;;;;9.32;5.38;;;11.90;91.70;;;;;;4085901;29;20051;-77
2024/03/17 09:29:06;;;;;;;9.95;5.30;;;12.00;91.90;;;;;;4086461;29;20047;-76
2024/03/17 09:31:07;;;;;;;7.65;5.60;;;11.90;91.00;;;;;;4092793;29;20047;-76
2024/03/17 09:33:11;;;;;;;8.98;5.80;;;11.90;91.20;;;;;;4099498;29;20134;-75
2024/03/17 09:35:11;;;;;;;8.82;5.18;;;12.00;90.70;;;;;;4086480;28;20136;-75
2024/03/17 09:37:13;;;;;;;7.53;4.65;;;12.00;90.90;;;;;;4092649;29;20520;-76
2024/03/17 09:39:16;;;;;;;7.53;4.22;;;12.10;90.20;;;;;;4086481;29;20370;-76
2024/03/17 09:41:24;;;;;;;8.15;4.07;;;12.10;90.10;;;;;;4092109;29;20489;-77
2024/03/17 09:43:26;;;;;;;8.60;4.70;;;12.10;88.60;;;;;;4085808;29;20500;-77
2024/03/17 09:45:29;;;;;;;7.30;4.45;;;12.20;89.20;;;;;;4085474;29;20047;-76
2024/03/17 09:47:30;;;;;;;6.57;4.40;;;12.30;88.90;;;;;;4091908;29;20468;-78
2024/03/17 09:49:33;;;;;;;7.30;4.60;;;12.40;88.30;;;;;;4086541;29;20094;-77
2024/03/17 09:51:36;;;;;;;9.18;4.40;;;12.50;88.60;;;;;;4090157;29;20523;-77
2024/03/17 09:53:38;;;;;;;8.00;4.35;;;12.50;85.80;;;;;;4095316;29;20548;-76
2024/03/17 09:55:39;;;;;;;8.00;3.95;;;12.60;85.90;;;;;;4087600;29;20374;-75
2024/03/17 09:57:41;;;;;;;8.40;4.20;;;12.60;83.40;;;;;;4091915;28;20058;-76
2024/03/17 09:59:42;;;;;;;7.00;3.92;;;12.60;84.70;;;;;;4093974;29;20051;-77
2024/03/17 10:01:47;;;;;;;6.60;3.60;;;12.70;85.50;;;;;;4085109;29;20056;-75
2024/03/17 10:03:54;;;;;;;5.38;3.28;;;12.80;84.20;;;;;;4085211;29;20635;-77
2024/03/17 10:06:01;;;;;;;7.28;4.00;;;12.80;82.20;;;;;;4085378;29;20489;-77
2024/03/17 10:08:04;;;;;;;6.18;3.72;;;12.80;82.20;;;;;;4082507;29;20116;-78
2024/03/17 10:10:13;;;;;;;10.10;4.20;;;12.90;83.20;;;;;;4083283;29;20047;-78
2024/03/17 10:12:29;;;;;;;6.60;3.88;;;13.00;83.10;;;;;;4085011;29;20122;-79
2024/03/17 10:14:29;;;;;;;6.57;3.92;;;13.00;82.30;;;;;;4090075;29;20055;-78
2024/03/17 10:16:33;;;;;;;6.28;3.70;;;13.10;83.20;;;;;;4088398;29;20051;-77
2024/03/17 10:18:34;;;;;;;7.78;3.83;;;13.10;82.50;;;;;;4087320;29;20519;-78
2024/03/17 10:20:36;;;;;;;7.43;3.85;;;13.20;82.40;;;;;;4088383;29;20063;-78
2024/03/17 10:22:38;;;;;;;6.88;3.70;;;13.10;81.70;;;;;;4089198;29;20481;-78
2024/03/17 10:24:40;;;;;;;6.63;3.47;;;13.20;82.60;;;;;;4096773;29;20113;-78
2024/03/17 10:26:47;;;;;;;7.55;3.60;;;13.30;81.80;;;;;;4090044;29;20051;-78
2024/03/17 10:28:49;;;;;;;7.63;3.55;;;13.40;82.10;;;;;;4095785;28;20378;-77
2024/03/17 10:31:00;;;;;;;5.68;3.30;;;13.50;81.10;;;;;;4089133;29;20437;-77
2024/03/17 10:33:03;;;;;;;5.65;3.25;;;13.60;79.20;;;;;;4089659;29;20464;-78
2024/03/17 10:35:30;;;;;;;6.22;3.35;;;13.60;77.80;;;;;;4091602;29;20047;-77
2024/03/17 10:37:32;;;;;;;5.82;2.80;;;13.60;77.60;;;;;;4085216;29;20051;-78
2024/03/17 10:39:35;;;;;;;5.97;2.65;;;13.60;78.40;;;;;;4082637;29;20460;-76
2024/03/17 10:41:39;;;;;;;6.53;3.45;;;13.60;78.30;;;;;;4082713;29;20051;-78
2024/03/17 10:43:42;;;;;;;4.55;2.75;;;13.60;77.10;;;;;;4088393;29;20051;-77
2024/03/17 10:45:43;;;;;;;5.93;3.10;;;13.60;76.90;;;;;;4089804;29;20080;-77
2024/03/17 10:47:49;;;;;;;5.60;2.53;;;13.50;77.50;;;;;;4089474;29;20055;-77
2024/03/17 10:49:54;;;;;;;6.88;2.70;;;13.70;77.50;;;;;;4082823;29;20090;-77
2024/03/17 10:52:02;;;;;;;5.75;2.60;;;13.80;77.00;;;;;;4089578;29;20070;-77
2024/03/17 10:54:04;;;;;;;6.32;2.50;;;13.80;76.60;;;;;;4086446;29;20464;-76
2024/03/17 10:56:09;;;;;;;4.97;2.80;;;13.90;76.60;;;;;;4089285;29;20044;-76
2024/03/17 10:58:24;;;;;;;5.57;2.40;;;13.90;75.00;;;;;;4086788;29;20099;-75
2024/03/17 11:00:29;;;;;;;5.85;2.95;;;14.00;76.10;;;;;;4096493;28;20319;-75
2024/03/17 11:02:32;;;;;;;6.60;2.83;;;14.00;75.90;;;;;;4091795;28;20058;-76
2024/03/17 11:04:35;;;;;;;6.60;2.63;;;14.10;76.10;;;;;;4089418;29;20103;-76
2024/03/17 11:06:37;;;;;;;4.35;2.30;;;14.10;75.40;;;;;;4083022;29;20477;-75
2024/03/17 11:08:38;;;;;;;4.78;2.10;;;13.90;75.20;;;;;;4082207;29;20454;-75
2024/03/17 11:10:50;;;;;;;7.25;2.40;;;13.90;76.30;;;;;;4100910;28;20070;-75
2024/03/17 11:12:56;;;;;;;5.78;2.10;;;13.90;75.20;;;;;;4084541;28;20127;-76
2024/03/17 11:15:33;;;;;;;;;;;14.10;76.00;;;;;;4083020;29;20047;-75
2024/03/17 11:17:35;;;;;;;8.00;2.20;;;14.20;73.80;;;;;;4085373;29;19973;-75
2024/03/17 11:19:37;;;;;;;5.40;2.38;;;14.30;73.90;;;;;;4085997;28;20466;-76
2024/03/17 11:21:38;;;;;;;4.95;2.30;;;14.40;73.90;;;;;;4097413;28;20099;-75
2024/03/17 11:23:40;;;;;;;4.57;1.85;;;14.40;73.40;;;;;;4082529;29;20481;-75
2024/03/17 11:25:41;;;;;;;4.32;1.85;;;14.30;71.90;;;;;;4081153;29;20390;-76
2024/03/17 11:27:43;;;;;;;6.63;2.08;;;14.40;72.30;;;;;;4095371;28;20102;-77
2024/03/17 11:29:46;;;;;;;5.55;1.83;;;14.20;72.30;;;;;;4082634;29;20142;-77
2024/03/17 11:31:52;;;;;;;5.93;1.80;;;14.30;71.70;;;;;;4086452;28;20051;-79
2024/03/17 11:33:55;;;;;;;4.90;2.30;;;14.20;72.40;;;;;;4088676;28;20058;-75
2024/03/17 11:36:36;;;;;;;4.35;1.95;;;14.10;72.50;;;;;;4084038;28;20044;-75
2024/03/17 11:38:52;;;;;;;6.15;2.15;;;13.90;73.40;;;;;;4096257;28;20039;-76
2024/03/17 11:41:37;;;;;;;7.15;2.10;;;13.90;73.20;;;;;;4078701;28;20051;-76
2024/03/17 11:43:38;;;;;;;6.50;2.20;;;14.10;73.20;;;;;;4089929;29;20138;-76
2024/03/17 11:45:42;;;;;;;7.50;2.80;;;14.40;72.30;;;;;;4087453;29;20044;-76
2024/03/17 11:47:43;;;;;;;8.93;2.15;;;14.50;73.10;;;;;;4093544;29;20043;-78
2024/03/17 11:49:46;;;;;;;7.03;2.00;;;14.50;69.90;;;;;;4089602;28;20110;-77
2024/03/17 11:51:47;;;;;;;7.95;2.38;;;14.60;72.10;;;;;;4089855;29;20051;-78
2024/03/17 11:53:59;;;;;;;6.30;2.15;;;14.50;72.50;;;;;;4082034;29;20091;-78
2024/03/17 11:56:03;;;;;;;5.57;2.50;;;14.60;72.00;;;;;;4096460;28;20087;-79
2024/03/17 11:58:05;;;;;;;6.03;2.38;;;14.40;70.90;;;;;;4093444;28;20078;-78
2024/03/17 12:00:20;;;;;;;5.72;2.10;;;14.20;71.10;;;;;;4088735;28;20126;-77
2024/03/17 12:02:26;;;;;;;5.30;2.07;;;14.30;69.60;;;;;;4091438;28;20133;-76
2024/03/17 12:04:26;;;;;;;;;;;14.30;69.70;;;;;;4089123;28;20147;-78
2024/03/17 12:06:28;;;;;;;6.68;2.17;;;14.40;69.60;;;;;;4089449;29;19968;-78
2024/03/17 12:08:29;;;;;;;6.40;2.85;;;14.60;69.70;;;;;;4089697;29;20084;-78
2024/03/17 12:10:31;;;;;;;7.22;2.00;;;14.80;69.30;;;;;;4089198;29;20043;-78
2024/03/17 12:12:34;;;;;;;4.03;1.20;;;14.80;68.60;;;;;;4083552;29;20051;-76
2024/03/17 12:14:37;;;;;;;5.10;1.38;;;14.60;66.90;;;;;;4082850;29;20432;-75
2024/03/17 12:16:40;;;;;;;4.35;1.27;;;14.60;68.00;;;;;;4088987;29;20372;-76
2024/03/17 12:18:45;;;;;;;5.38;1.40;;;14.70;66.90;;;;;;4085883;29;20051;-76
2024/03/17 12:20:48;;;;;;;4.28;1.25;;;14.70;66.00;;;;;;4090785;29;20081;-77
2024/03/17 12:22:50;;;;;;;3.65;1.00;;;14.70;65.50;;;;;;4094318;28;20047;-77
2024/03/17 12:24:53;;;;;;;4.13;1.35;;;14.80;64.60;;;;;;4091377;29;20698;-78
2024/03/17 12:26:59;;;;;;;4.28;1.20;;;14.80;65.70;;;;;;4082186;29;20063;-77
2024/03/17 12:29:00;;;;;;;5.55;1.70;;;14.80;65.70;;;;;;4081850;29;20552;-77
2024/03/17 12:31:02;;;;;;;5.10;1.25;;;14.80;66.30;;;;;;4087533;29;20043;-78
2024/03/17 12:33:04;;;;;;;5.95;1.33;;;14.70;64.50;;;;;;4085946;29;20067;-77
2024/03/17 12:35:16;;;;;;;4.50;1.10;;;14.70;63.90;;;;;;4081714;29;20052;-78
2024/03/17 12:37:19;;;;;;;4.40;1.00;;;14.50;62.90;;;;;;4081666;29;20107;-77
2024/03/17 12:39:23;;;;;;;4.80;1.30;;;14.20;64.70;;;;;;4088550;29;20567;-77
2024/03/17 12:41:24;;;;;;;4.28;1.20;;;14.10;63.60;;;;;;4092495;29;20109;-75
2024/03/17 12:43:27;;;;;;;4.15;1.02;;;14.10;63.80;;;;;;4088106;29;20044;-76
2024/03/17 12:45:27;;;;;;;3.95;1.00;;;14.10;63.80;;;;;;4088254;29;20099;-76
2024/03/17 12:47:31;;;;;;;4.30;1.27;;;14.10;64.80;;;;;;4081612;29;20119;-77
2024/03/17 12:49:34;;;;;;;3.45;1.00;;;14.00;64.00;;;;;;4090629;28;20055;-77
2024/03/17 12:51:40;;;;;;;4.85;1.50;;;14.10;64.50;;;;;;4093325;28;20044;-76
2024/03/17 12:53:41;;;;;;;;;;;14.20;67.10;;;;;;4089255;29;20051;-76
2024/03/17 13:00:33;;;;;;;5.55;1.20;;;14.00;66.80;;;;;;4090751;29;20058;-78
2024/03/17 13:02:35;;;;;;;4.57;1.23;;;14.10;66.90;;;;;;4091907;29;20047;-77
2024/03/17 13:04:37;;;;;;;3.90;1.15;;;14.00;67.70;;;;;;4087692;29;20058;-78
2024/03/17 13:06:41;;;;;;;2.55;1.08;;;14.20;66.00;;;;;;4085225;29;20522;-77
2024/03/17 13:08:42;;;;;;;5.05;1.25;;;14.20;65.90;;;;;;4087651;29;20123;-77
2024/03/17 13:10:44;;;;;;;3.35;1.13;;;14.30;66.60;;;;;;4092729;29;20040;-77
2024/03/17 13:12:48;;;;;;;3.20;1.00;;;14.30;65.50;;;;;;4085841;29;20048;-78
2024/03/17 13:14:49;;;;;;;6.55;1.73;;;14.30;65.90;;;;;;4086770;29;20445;-76
2024/03/17 13:16:51;;;;;;;5.45;1.70;;;14.50;65.20;;;;;;4086534;29;20058;-77
2024/03/17 13:18:52;;;;;;;4.82;1.73;;;14.70;64.30;;;;;;4095468;29;20053;-78
2024/03/17 13:20:57;;;;;;;3.42;1.15;;;14.70;64.40;;;;;;4084725;29;20099;-77
2024/03/17 13:23:00;;;;;;;3.40;0.93;;;14.90;65.20;;;;;;4084591;29;20134;-77
2024/03/17 13:25:02;;;;;;;10.20;1.45;;;14.80;63.20;;;;;;4082573;29;20086;-78
2024/03/17 13:27:06;;;;;;;3.38;1.30;;;14.80;64.70;;;;;;4091215;29;20192;-77
2024/03/17 13:29:08;;;;;;;3.88;1.20;;;14.80;62.40;;;;;;4092186;29;20428;-78
2024/03/17 13:31:13;;;;;;;4.40;1.30;;;14.90;63.00;;;;;;4084093;29;20107;-78
2024/03/17 13:33:15;;;;;;;2.92;0.98;;;14.90;62.10;;;;;;4084342;29;20114;-79
2024/03/17 13:35:18;;;;;;;3.97;1.15;;;14.80;62.20;;;;;;4087390;29;20062;-79
2024/03/17 13:37:21;;;;;;;3.38;1.00;;;15.00;61.70;;;;;;4096295;29;20043;-79
2024/03/17 13:39:31;;;;;;;4.50;1.33;;;15.10;60.90;;;;;;4090650;29;20159;-79
2024/03/17 13:41:34;;;;;;;4.25;1.10;;;15.20;61.10;;;;;;4089402;29;20099;-78
2024/03/17 13:43:35;;;;;;;3.33;1.10;;;15.00;62.60;;;;;;4083909;29;20056;-78
2024/03/17 13:45:41;;;;;;;3.88;1.10;;;15.10;62.10;;;;;;4084325;29;20531;-78
2024/03/17 13:47:48;;;;;;;3.03;0.95;;;14.90;61.70;;;;;;4086051;29;20051;-83
2024/03/17 13:49:50;;;;;;;8.07;2.00;;;15.00;62.70;;;;;;4090165;29;20048;-83
2024/03/17 13:51:51;;;;;;;6.15;2.10;;;15.10;63.60;;;;;;4088415;29;20555;-82
2024/03/17 13:53:52;;;;;;;4.18;1.25;;;15.20;63.40;;;;;;4084068;29;20052;-80
2024/03/17 13:55:56;;;;;;;5.18;1.40;;;15.20;62.40;;;;;;4098502;29;20087;-87
2024/03/17 13:57:59;;;;;;;4.70;1.65;;;15.20;62.10;;;;;;4095261;29;20471;-81
2024/03/17 14:00:02;;;;;;;4.22;1.08;;;15.30;62.30;;;;;;4092642;29;20485;-80
2024/03/17 14:02:04;;;;;;;4.43;1.35;;;15.30;61.30;;;;;;4089538;29;20070;-79
2024/03/17 14:04:05;;;;;;;3.42;1.20;;;15.40;62.50;;;;;;4090136;29;20118;-77
2024/03/17 14:06:08;;;;;;;4.72;1.10;;;15.80;61.40;;;;;;4091928;29;20453;-78
2024/03/17 14:08:10;;;;;;;4.57;1.20;;;16.30;59.80;;;;;;4096768;29;20062;-81
2024/03/17 14:10:14;;;;;;;3.58;1.13;;;16.60;58.40;;;;;;4091601;29;20063;-78
2024/03/17 14:12:18;;;;;;;4.13;1.30;;;16.90;58.30;;;;;;4096782;29;20051;-75
2024/03/17 14:14:19;;;;;;;7.40;2.95;;;17.00;57.60;;;;;;4092857;29;20063;-75
2024/03/17 14:16:20;;;;;;;8.00;3.85;;;16.80;58.60;;;;;;4097378;29;20105;-77
2024/03/17 14:18:23;;;;;;;6.93;2.75;;;16.80;56.90;;;;;;4098377;29;20091;-77
2024/03/17 14:20:24;;;;;;;6.45;3.53;;;17.00;57.30;;;;;;4090732;29;20441;-76
2024/03/17 14:22:26;;;;;;;9.90;5.25;;;17.20;57.30;;;;;;4098019;29;20039;-82
2024/03/17 14:24:29;;;;;;;4.20;1.48;;;18.40;55.10;;;;;;4097668;29;20119;-75
2024/03/17 14:26:31;;;;;;;3.22;1.00;;;19.30;51.30;;;;;;4092447;29;20548;-75
2024/03/17 14:28:34;;;;;;;2.92;1.08;;;19.80;49.70;;;;;;4086537;29;20126;-76
2024/03/17 14:30:36;;;;;;;5.10;1.30;;;19.50;50.00;;;;;;4093561;29;20039;-75
2024/03/17 14:32:40;;;;;;;2.22;0.85;;;19.20;49.70;;;;;;4093568;29;20047;-73
2024/03/17 14:34:42;;;;;;;4.25;1.00;;;19.20;49.50;;;;;;4094729;29;20055;-76
2024/03/17 14:36:44;;;;;;;4.35;1.10;;;18.80;50.40;;;;;;4090652;29;20551;-75
2024/03/17 14:38:46;;;;;;;5.00;1.13;;;18.30;50.50;;;;;;4092344;29;20051;-76
2024/03/17 14:40:48;;;;;;;3.30;1.05;;;18.10;51.60;;;;;;4093307;29;20489;-74
2024/03/17 14:42:50;;;;;;;2.67;1.15;;;17.60;52.20;;;;;;4094668;29;20091;-76
2024/03/17 14:44:53;;;;;;;5.63;1.40;;;17.70;52.80;;;;;;4088861;29;20126;-75
2024/03/17 14:46:55;;;;;;;4.15;1.25;;;17.80;53.00;;;;;;4083930;29;20044;-75
2024/03/17 14:48:57;;;;;;;4.20;1.20;;;18.20;52.90;;;;;;4095510;29;20039;-75
2024/03/17 14:50:59;;;;;;;3.50;1.20;;;18.60;51.60;;;;;;4093085;29;20043;-75
2024/03/17 14:53:01;;;;;;;4.03;1.10;;;18.60;51.20;;;;;;4090162;29;20050;-75
2024/03/17 14:55:02;;;;;;;4.43;1.27;;;18.70;50.90;;;;;;4087180;29;20054;-75
2024/03/17 14:57:04;;;;;;;4.70;1.10;;;18.90;51.80;;;;;;4093196;29;20481;-75
2024/03/17 14:59:05;;;;;;;4.75;1.40;;;19.30;51.40;;;;;;4091855;29;20047;-75
2024/03/17 15:01:09;;;;;;;3.47;1.30;;;19.40;49.80;;;;;;4083448;29;20060;-75
2024/03/17 15:03:10;;;;;;;4.13;1.40;;;19.70;49.70;;;;;;4096013;29;20047;-75
2024/03/17 15:05:11;;;;;;;3.58;1.50;;;19.60;48.80;;;;;;4096966;29;20060;-76
2024/03/17 15:07:13;;;;;;;5.90;1.70;;;19.50;49.90;;;;;;4085658;29;20406;-75
2024/03/17 15:09:18;;;;;;;5.20;1.77;;;19.30;51.10;;;;;;4094072;29;20138;-75
2024/03/17 15:11:20;;;;;;;4.30;1.40;;;18.80;50.80;;;;;;4082887;29;20052;-75
2024/03/17 15:13:21;;;;;;;4.53;1.20;;;18.40;51.80;;;;;;4082795;29;20311;-75
2024/03/17 15:15:23;;;;;;;3.03;1.00;;;18.30;53.20;;;;;;4083987;29;20119;-75
2024/03/17 15:17:27;;;;;;;4.75;1.30;;;18.10;53.70;;;;;;4093003;29;20055;-75
2024/03/17 15:19:29;;;;;;;5.28;1.42;;;17.90;54.40;;;;;;4094525;29;20105;-75
2024/03/17 15:21:30;;;;;;;5.78;1.45;;;17.80;54.40;;;;;;4094004;29;20091;-76
2024/03/17 15:23:35;;;;;;;3.63;1.20;;;17.60;54.40;;;;;;4091808;29;20063;-76
2024/03/17 15:25:36;;;;;;;3.13;1.13;;;17.40;54.40;;;;;;4080784;29;20043;-75
2024/03/17 15:27:38;;;;;;;4.35;1.30;;;17.30;55.30;;;;;;4089449;29;20394;-75
2024/03/17 15:29:41;;;;;;;3.85;1.40;;;17.10;54.70;;;;;;4090355;29;20047;-75
2024/03/17 15:31:43;;;;;;;4.53;1.25;;;17.00;55.60;;;;;;4095242;29;20043;-76
2024/03/17 15:33:48;;;;;;;3.22;1.13;;;16.90;55.90;;;;;;4092880;29;20079;-75
2024/03/17 15:35:49;;;;;;;5.10;1.63;;;16.70;56.00;;;;;;4082358;29;20051;-75
2024/03/17 15:37:51;;;;;;;3.30;1.20;;;16.60;56.60;;;;;;4087779;29;20047;-75
2024/03/17 15:39:52;;;;;;;4.85;1.17;;;16.50;57.70;;;;;;4082523;29;20646;-75
2024/03/17 15:41:54;;;;;;;4.38;1.05;;;16.50;57.60;;;;;;4090244;29;20062;-75
2024/03/17 15:43:56;;;;;;;4.32;1.30;;;16.40;58.70;;;;;;4091461;29;20051;-75
2024/03/17 15:45:58;;;;;;;4.05;1.05;;;16.40;59.50;;;;;;4087123;29;20051;-75
2024/03/17 15:48:00;;;;;;;5.47;1.40;;;16.30;58.70;;;;;;4089422;29;20050;-75
2024/03/17 15:50:03;;;;;;;4.35;1.00;;;16.30;58.90;;;;;;4086406;29;20103;-76
2024/03/17 15:52:06;;;;;;;4.03;1.17;;;16.20;59.30;;;;;;4088313;29;20055;-76
2024/03/17 15:54:08;;;;;;;5.32;1.10;;;16.10;58.90;;;;;;4083081;29;20054;-74
2024/03/17 15:56:11;;;;;;;3.80;1.27;;;16.10;59.60;;;;;;4089583;29;20559;-73
2024/03/17 15:58:12;;;;;;;5.57;1.17;;;16.10;59.80;;;;;;4089087;29;20496;-75
2024/03/17 16:00:15;;;;;;;4.35;1.20;;;16.00;59.80;;;;;;4090345;29;20113;-75
2024/03/17 16:02:17;;;;;;;3.88;1.30;;;16.00;59.70;;;;;;4082003;29;20813;-74
2024/03/17 16:04:24;;;;;;;4.05;1.20;;;16.00;59.80;;;;;;4088972;29;20048;-75
2024/03/17 16:06:28;;;;;;;3.15;1.30;;;15.90;59.90;;;;;;4089850;29;20412;-75
2024/03/17 16:08:30;;;;;;;5.13;1.25;;;15.90;60.20;;;;;;4089555;29;20103;-75
2024/03/17 16:10:34;;;;;;;4.35;1.40;;;15.90;60.40;;;;;;4090285;29;20102;-75
2024/03/17 16:12:35;;;;;;;6.35;1.30;;;15.80;60.20;;;;;;4081957;29;20051;-74
2024/03/17 16:14:38;;;;;;;3.50;1.10;;;15.80;60.20;;;;;;4084319;29;20047;-74
2024/03/17 16:16:41;;;;;;;3.03;0.95;;;15.70;61.00;;;;;;4083996;29;20154;-75
2024/03/17 16:18:43;;;;;;;6.20;1.15;;;15.70;60.80;;;;;;4082179;29;20386;-76
2024/03/17 16:20:59;;;;;;;3.08;1.10;;;15.60;61.10;;;;;;4089992;29;20047;-76
2024/03/17 16:23:03;;;;;;;3.80;1.10;;;15.60;61.50;;;;;;4082008;29;20079;-75
2024/03/17 16:25:06;;;;;;;3.80;1.10;;;15.60;61.90;;;;;;4080100;29;20071;-76
2024/03/17 16:27:09;;;;;;;4.18;1.27;;;15.50;62.50;;;;;;4082657;29;20058;-76
2024/03/17 16:29:14;;;;;;;6.45;1.45;;;15.50;63.20;;;;;;4091513;29;20134;-77
2024/03/17 16:31:16;;;;;;;4.38;1.42;;;15.50;63.00;;;;;;4093612;29;20504;-77
2024/03/17 16:33:17;;;;;;;6.00;1.60;;;15.40;62.40;;;;;;4085692;29;20106;-76
2024/03/17 16:35:19;;;;;;;4.90;1.30;;;15.40;63.00;;;;;;4086471;29;20048;-75
2024/03/17 16:37:21;;;;;;;3.30;0.90;;;15.40;63.80;;;;;;4087225;29;20052;-76
2024/03/17 16:39:26;;;;;;;6.68;1.30;;;15.40;63.70;;;;;;4090329;29;20134;-80
2024/03/17 16:41:27;;;;;;;13.67;1.97;;;15.30;63.90;;;;;;4085142;29;20051;-78
2024/03/17 16:43:48;;;;;;;5.30;1.88;;;15.40;64.70;;;;;;4091773;29;20044;-81
2024/03/17 16:46:01;;;;;;;5.00;1.55;;;15.30;64.60;;;;;;4085272;29;20541;-77